KVRB/VRB METAR and TAF weather

Enter ICAO airport designator
Station Type Date Time Source
KVRB METAR 2018/12/17 15:53 UTC NOAA

KVRB 171553Z 34007KT 10SM CLR 16/09 A3016 RMK AO2 SLP210 T01610094


Station Type Date Time Source
KVRB Decoded METAR 2018/12/17 15:53 UTC NOAA

VERO BEACH MUNICIPAL AIRPORT , FL, United States (KVRB) 27-39N 080-25W 10M
Dec 17, 2018 - 10:53 AM EST / 2018.12.17 1553 UTC
Wind: from the NNW (340 degrees) at 8 MPH (7 KT):0
Visibility: 10 mile(s):0
Sky conditions: clear
Temperature: 61.0 F (16.1 C)
Dew Point: 48.9 F (9.4 C)
Relative Humidity: 64%
Pressure (altimeter): 30.16 in. Hg (1021 hPa)
ob: KVRB 171553Z 34007KT 10SM CLR 16/09 A3016 RMK AO2 SLP210 T01610094
cycle: 16

Station Type Date Time Source
KVRB TAF 2018/12/17 12:24 UTC NOAA

TAF KVRB 171123Z 1712/1812 31007KT P6SM FEW025 SCT250
FM180600 00000KT P6SM MIFG FEW250


Example: see airport list